sensor_id;sensor_type;location;lat;lon;timestamp;pressure;altitude;pressure_sealevel;temperature;humidity
31681;BME280;18281;51.364;9.566;2023-03-16T00:01:54;100566.34;;;-2.44;100.00
31681;BME280;18281;51.364;9.566;2023-03-16T00:04:19;100561.13;;;-2.47;100.00
31681;BME280;18281;51.364;9.566;2023-03-16T00:06:45;100566.28;;;-2.47;100.00
31681;BME280;18281;51.364;9.566;2023-03-16T00:09:10;100561.97;;;-2.50;100.00
31681;BME280;18281;51.364;9.566;2023-03-16T00:11:37;100561.13;;;-2.55;100.00
31681;BME280;18281;51.364;9.566;2023-03-16T00:14:02;100564.53;;;-2.53;100.00
31681;BME280;18281;51.364;9.566;2023-03-16T00:16:28;100555.97;;;-2.55;100.00
31681;BME280;18281;51.364;9.566;2023-03-16T00:18:54;100558.56;;;-2.53;100.00
31681;BME280;18281;51.364;9.566;2023-03-16T00:21:19;100555.06;;;-2.60;100.00
31681;BME280;18281;51.364;9.566;2023-03-16T00:23:45;100556.75;;;-2.62;100.00
31681;BME280;18281;51.364;9.566;2023-03-16T00:26:10;100551.59;;;-2.65;100.00
31681;BME280;18281;51.364;9.566;2023-03-16T00:28:37;100551.59;;;-2.67;100.00
31681;BME280;18281;51.364;9.566;2023-03-16T00:31:05;100550.69;;;-2.69;100.00
31681;BME280;18281;51.364;9.566;2023-03-16T00:33:31;100550.69;;;-2.72;100.00
31681;BME280;18281;51.364;9.566;2023-03-16T00:36:03;100548.09;;;-2.75;100.00
31681;BME280;18281;51.364;9.566;2023-03-16T00:38:31;100549.78;;;-2.77;100.00
31681;BME280;18281;51.364;9.566;2023-03-16T00:40:59;100555.78;;;-2.76;100.00
31681;BME280;18281;51.364;9.566;2023-03-16T00:43:28;100554.06;;;-2.77;100.00
31681;BME280;18281;51.364;9.566;2023-03-16T00:46:00;100548.03;;;-2.81;100.00
31681;BME280;18281;51.364;9.566;2023-03-16T00:48:32;100554.84;;;-2.85;100.00
31681;BME280;18281;51.364;9.566;2023-03-16T00:51:02;100554.03;;;-2.84;100.00
31681;BME280;18281;51.364;9.566;2023-03-16T00:53:32;100564.28;;;-2.88;100.00
31681;BME280;18281;51.364;9.566;2023-03-16T00:55:58;100557.41;;;-2.89;100.00
31681;BME280;18281;51.364;9.566;2023-03-16T00:58:23;100559.97;;;-2.91;100.00
31681;BME280;18281;51.364;9.566;2023-03-16T01:00:49;100564.22;;;-2.91;100.00
31681;BME280;18281;51.364;9.566;2023-03-16T01:03:15;100559.06;;;-2.94;100.00
31681;BME280;18281;51.364;9.566;2023-03-16T01:05:41;100555.66;;;-2.93;100.00
31681;BME280;18281;51.364;9.566;2023-03-16T01:08:07;100552.19;;;-2.94;100.00
31681;BME280;18281;51.364;9.566;2023-03-16T01:10:36;100559.91;;;-2.95;100.00
31681;BME280;18281;51.364;9.566;2023-03-16T01:13:02;100559.03;;;-2.99;100.00
31681;BME280;18281;51.364;9.566;2023-03-16T01:15:32;100567.53;;;-3.03;100.00
31681;BME280;18281;51.364;9.566;2023-03-16T01:17:59;100564.09;;;-3.07;100.00
31681;BME280;18281;51.364;9.566;2023-03-16T01:20:25;100560.66;;;-3.07;100.00
31681;BME280;18281;51.364;9.566;2023-03-16T01:22:51;100559.78;;;-3.09;100.00
31681;BME280;18281;51.364;9.566;2023-03-16T01:25:16;100551.19;;;-3.10;100.00
31681;BME280;18281;51.364;9.566;2023-03-16T01:27:42;100546.06;;;-3.11;100.00
31681;BME280;18281;51.364;9.566;2023-03-16T01:30:08;100541.75;;;-3.14;100.00
31681;BME280;18281;51.364;9.566;2023-03-16T01:32:37;100533.19;;;-3.16;100.00
31681;BME280;18281;51.364;9.566;2023-03-16T01:35:02;100533.19;;;-3.16;100.00
31681;BME280;18281;51.364;9.566;2023-03-16T01:37:29;100527.22;;;-3.13;100.00
31681;BME280;18281;51.364;9.566;2023-03-16T01:39:55;100517.75;;;-3.18;100.00
31681;BME280;18281;51.364;9.566;2023-03-16T01:42:21;100516.03;;;-3.22;100.00
31681;BME280;18281;51.364;9.566;2023-03-16T01:44:52;100522.00;;;-3.20;100.00
31681;BME280;18281;51.364;9.566;2023-03-16T01:47:19;100508.31;;;-3.20;100.00
31681;BME280;18281;51.364;9.566;2023-03-16T01:49:44;100507.44;;;-3.22;100.00
31681;BME280;18281;51.364;9.566;2023-03-16T01:52:24;100507.41;;;-3.27;100.00
31681;BME280;18281;51.364;9.566;2023-03-16T01:54:54;100509.91;;;-3.32;100.00
31681;BME280;18281;51.364;9.566;2023-03-16T01:57:25;100514.19;;;-3.35;100.00
31681;BME280;18281;51.364;9.566;2023-03-16T01:59:56;100509.88;;;-3.38;100.00
31681;BME280;18281;51.364;9.566;2023-03-16T02:02:26;100512.44;;;-3.36;100.00
31681;BME280;18281;51.364;9.566;2023-03-16T02:05:01;100512.38;;;-3.41;100.00
31681;BME280;18281;51.364;9.566;2023-03-16T02:07:31;100514.94;;;-3.44;100.00
31681;BME280;18281;51.364;9.566;2023-03-16T02:10:00;100513.22;;;-3.43;100.00
31681;BME280;18281;51.364;9.566;2023-03-16T02:12:27;100513.16;;;-3.50;100.00
31681;BME280;18281;51.364;9.566;2023-03-16T02:14:53;100525.97;;;-3.53;100.00
31681;BME280;18281;51.364;9.566;2023-03-16T02:17:21;100523.38;;;-3.54;100.00
31681;BME280;18281;51.364;9.566;2023-03-16T02:22:50;100529.31;;;-3.57;100.00
31681;BME280;18281;51.364;9.566;2023-03-16T02:25:24;100527.66;;;-3.56;100.00
31681;BME280;18281;51.364;9.566;2023-03-16T02:30:21;100515.63;;;-3.59;100.00
31681;BME280;18281;51.364;9.566;2023-03-16T02:32:48;100512.16;;;-3.64;100.00
31681;BME280;18281;51.364;9.566;2023-03-16T02:35:16;100505.25;;;-3.68;100.00
31681;BME280;18281;51.364;9.566;2023-03-16T02:37:41;100498.41;;;-3.71;100.00
31681;BME280;18281;51.364;9.566;2023-03-16T02:40:23;100487.28;;;-3.70;100.00
31681;BME280;18281;51.364;9.566;2023-03-16T02:43:02;100479.59;;;-3.71;100.00
31681;BME280;18281;51.364;9.566;2023-03-16T02:45:41;100478.69;;;-3.72;100.00
31681;BME280;18281;51.364;9.566;2023-03-16T02:48:20;100476.13;;;-3.73;100.00
31681;BME280;18281;51.364;9.566;2023-03-16T02:50:49;100477.81;;;-3.75;100.00
31681;BME280;18281;51.364;9.566;2023-03-16T02:53:16;100480.34;;;-3.78;100.00
31681;BME280;18281;51.364;9.566;2023-03-16T02:55:42;100472.63;;;-3.80;100.00
31681;BME280;18281;51.364;9.566;2023-03-16T02:58:09;100476.03;;;-3.83;100.00
31681;BME280;18281;51.364;9.566;2023-03-16T03:00:36;100474.25;;;-3.87;100.00
31681;BME280;18281;51.364;9.566;2023-03-16T03:03:03;100478.47;;;-3.93;100.00
31681;BME280;18281;51.364;9.566;2023-03-16T03:05:30;100480.22;;;-3.89;100.00
31681;BME280;18281;51.364;9.566;2023-03-16T03:07:55;100473.38;;;-3.90;100.00
31681;BME280;18281;51.364;9.566;2023-03-16T03:10:21;100462.25;;;-3.89;100.00
31681;BME280;18281;51.364;9.566;2023-03-16T03:12:47;100463.97;;;-3.93;100.00
31681;BME280;18281;51.364;9.566;2023-03-16T03:15:15;100463.06;;;-3.95;100.00
31681;BME280;18281;51.364;9.566;2023-03-16T03:17:40;100463.06;;;-3.96;100.00
31681;BME280;18281;51.364;9.566;2023-03-16T03:20:08;100465.53;;;-4.01;100.00
31681;BME280;18281;51.364;9.566;2023-03-16T03:22:40;100470.72;;;-4.00;100.00
31681;BME280;18281;51.364;9.566;2023-03-16T03:25:06;100469.00;;;-3.97;100.00
31681;BME280;18281;51.364;9.566;2023-03-16T03:27:33;100461.28;;;-4.02;100.00
31681;BME280;18281;51.364;9.566;2023-03-16T03:29:58;100465.53;;;-4.03;100.00
31681;BME280;18281;51.364;9.566;2023-03-16T03:32:24;100467.16;;;-4.11;100.00
31681;BME280;18281;51.364;9.566;2023-03-16T03:34:49;100468.88;;;-4.08;100.00
31681;BME280;18281;51.364;9.566;2023-03-16T03:37:15;100471.44;;;-4.08;100.00
31681;BME280;18281;51.364;9.566;2023-03-16T03:39:41;100472.28;;;-4.09;100.00
31681;BME280;18281;51.364;9.566;2023-03-16T03:42:06;100468.03;;;-4.09;100.00
31681;BME280;18281;51.364;9.566;2023-03-16T03:44:32;100466.28;;;-4.13;100.00
31681;BME280;18281;51.364;9.566;2023-03-16T03:46:59;100471.34;;;-4.18;100.00
31681;BME280;18281;51.364;9.566;2023-03-16T03:49:25;100468.78;;;-4.18;100.00
31681;BME280;18281;51.364;9.566;2023-03-16T03:51:50;100472.22;;;-4.15;100.00
31681;BME280;18281;51.364;9.566;2023-03-16T03:54:16;100462.81;;;-4.15;100.00
31681;BME280;18281;51.364;9.566;2023-03-16T03:56:41;100473.09;;;-4.15;100.00
31681;BME280;18281;51.364;9.566;2023-03-16T03:59:07;100478.19;;;-4.17;100.00
31681;BME280;18281;51.364;9.566;2023-03-16T04:01:33;100478.16;;;-4.20;100.00
31681;BME280;18281;51.364;9.566;2023-03-16T04:03:58;100466.09;;;-4.25;100.00
31681;BME280;18281;51.364;9.566;2023-03-16T04:06:25;100477.19;;;-4.28;100.00
31681;BME280;18281;51.364;9.566;2023-03-16T04:08:50;100469.53;;;-4.26;100.00
31681;BME280;18281;51.364;9.566;2023-03-16T04:11:18;100475.47;;;-4.29;100.00
31681;BME280;18281;51.364;9.566;2023-03-16T04:13:44;100472.03;;;-4.31;100.00
31681;BME280;18281;51.364;9.566;2023-03-16T04:16:09;100473.72;;;-4.33;100.00
31681;BME280;18281;51.364;9.566;2023-03-16T04:18:35;100468.53;;;-4.35;100.00
31681;BME280;18281;51.364;9.566;2023-03-16T04:21:07;100467.69;;;-4.35;100.00
31681;BME280;18281;51.364;9.566;2023-03-16T04:23:36;100462.56;;;-4.35;100.00
31681;BME280;18281;51.364;9.566;2023-03-16T04:26:02;100453.13;;;-4.39;100.00
31681;BME280;18281;51.364;9.566;2023-03-16T04:28:30;100458.25;;;-4.39;100.00
31681;BME280;18281;51.364;9.566;2023-03-16T04:31:01;100458.28;;;-4.36;100.00
31681;BME280;18281;51.364;9.566;2023-03-16T04:33:26;100459.13;;;-4.37;100.00
31681;BME280;18281;51.364;9.566;2023-03-16T04:35:52;100459.06;;;-4.42;100.00
31681;BME280;18281;51.364;9.566;2023-03-16T04:38:17;100465.84;;;-4.47;100.00
31681;BME280;18281;51.364;9.566;2023-03-16T04:40:42;100469.22;;;-4.48;100.00
31681;BME280;18281;51.364;9.566;2023-03-16T04:43:08;100465.75;;;-4.53;100.00
31681;BME280;18281;51.364;9.566;2023-03-16T04:45:33;100461.47;;;-4.56;100.00
31681;BME280;18281;51.364;9.566;2023-03-16T04:47:59;100451.13;;;-4.59;100.00
31681;BME280;18281;51.364;9.566;2023-03-16T04:50:24;100457.16;;;-4.58;100.00
31681;BME280;18281;51.364;9.566;2023-03-16T04:52:50;100453.69;;;-4.59;100.00
31681;BME280;18281;51.364;9.566;2023-03-16T04:55:15;100463.13;;;-4.58;100.00
31681;BME280;18281;51.364;9.566;2023-03-16T04:57:41;100464.81;;;-4.60;100.00
31681;BME280;18281;51.364;9.566;2023-03-16T05:00:07;100458.78;;;-4.63;100.00
31681;BME280;18281;51.364;9.566;2023-03-16T05:02:38;100455.34;;;-4.64;100.00
31681;BME280;18281;51.364;9.566;2023-03-16T05:05:04;100452.75;;;-4.65;100.00
31681;BME280;18281;51.364;9.566;2023-03-16T05:07:30;100448.44;;;-4.70;100.00
31681;BME280;18281;51.364;9.566;2023-03-16T05:09:56;100450.16;;;-4.70;100.00
31681;BME280;18281;51.364;9.566;2023-03-16T05:12:22;100445.81;;;-4.74;100.00
31681;BME280;18281;51.364;9.566;2023-03-16T05:14:47;100442.31;;;-4.79;100.00
31681;BME280;18281;51.364;9.566;2023-03-16T05:17:12;100441.47;;;-4.80;100.00
31681;BME280;18281;51.364;9.566;2023-03-16T05:19:39;100441.47;;;-4.80;100.00
31681;BME280;18281;51.364;9.566;2023-03-16T05:22:04;100446.63;;;-4.78;100.00
31681;BME280;18281;51.364;9.566;2023-03-16T05:24:31;100453.50;;;-4.74;100.00
31681;BME280;18281;51.364;9.566;2023-03-16T05:26:57;100456.00;;;-4.77;100.00
31681;BME280;18281;51.364;9.566;2023-03-16T05:29:23;100461.16;;;-4.76;100.00
31681;BME280;18281;51.364;9.566;2023-03-16T05:31:50;100465.44;;;-4.75;100.00
31681;BME280;18281;51.364;9.566;2023-03-16T05:34:15;100465.41;;;-4.78;100.00
31681;BME280;18281;51.364;9.566;2023-03-16T05:36:41;100467.03;;;-4.81;100.00
31681;BME280;18281;51.364;9.566;2023-03-16T05:39:09;100472.09;;;-4.88;100.00
31681;BME280;18281;51.364;9.566;2023-03-16T05:41:34;100473.81;;;-4.87;100.00
31681;BME280;18281;51.364;9.566;2023-03-16T05:44:00;100470.41;;;-4.84;100.00
31681;BME280;18281;51.364;9.566;2023-03-16T05:46:25;100473.81;;;-4.87;100.00
31681;BME280;18281;51.364;9.566;2023-03-16T05:48:51;100476.38;;;-4.87;100.00
31681;BME280;18281;51.364;9.566;2023-03-16T05:51:16;100472.09;;;-4.88;100.00
31681;BME280;18281;51.364;9.566;2023-03-16T05:53:42;100473.75;;;-4.90;100.00
31681;BME280;18281;51.364;9.566;2023-03-16T05:56:11;100481.53;;;-4.84;100.00
31681;BME280;18281;51.364;9.566;2023-03-16T05:58:36;100478.97;;;-4.84;100.00
31681;BME280;18281;51.364;9.566;2023-03-16T06:01:02;100476.41;;;-4.84;100.00
31681;BME280;18281;51.364;9.566;2023-03-16T06:03:29;100469.59;;;-4.83;100.00
31681;BME280;18281;51.364;9.566;2023-03-16T06:05:55;100457.59;;;-4.86;100.00
31681;BME280;18281;51.364;9.566;2023-03-16T06:08:21;100462.78;;;-4.82;100.00
31681;BME280;18281;51.364;9.566;2023-03-16T06:10:46;100468.78;;;-4.80;100.00
31681;BME280;18281;51.364;9.566;2023-03-16T06:13:12;100463.63;;;-4.82;100.00
31681;BME280;18281;51.364;9.566;2023-03-16T06:15:38;100460.22;;;-4.82;100.00
31681;BME280;18281;51.364;9.566;2023-03-16T06:18:03;100455.91;;;-4.85;100.00
31681;BME280;18281;51.364;9.566;2023-03-16T06:20:29;100460.22;;;-4.82;100.00
31681;BME280;18281;51.364;9.566;2023-03-16T06:22:54;100456.78;;;-4.83;100.00
31681;BME280;18281;51.364;9.566;2023-03-16T06:25:20;100461.06;;;-4.82;100.00
31681;BME280;18281;51.364;9.566;2023-03-16T06:27:45;100460.28;;;-4.76;100.00
31681;BME280;18281;51.364;9.566;2023-03-16T06:30:12;100456.88;;;-4.77;100.00
31681;BME280;18281;51.364;9.566;2023-03-16T06:32:38;100464.53;;;-4.78;100.00
31681;BME280;18281;51.364;9.566;2023-03-16T06:35:07;100466.50;;;-4.59;100.00
31681;BME280;18281;51.364;9.566;2023-03-16T06:37:33;100451.34;;;-4.46;100.00
31681;BME280;18281;51.364;9.566;2023-03-16T06:39:59;100453.94;;;-4.43;100.00
31681;BME280;18281;51.364;9.566;2023-03-16T06:42:25;100448.13;;;-4.30;100.00
31681;BME280;18281;51.364;9.566;2023-03-16T06:44:50;100437.09;;;-4.21;100.00
31681;BME280;18281;51.364;9.566;2023-03-16T06:47:17;100449.91;;;-4.21;100.00
31681;BME280;18281;51.364;9.566;2023-03-16T06:49:42;100438.81;;;-4.20;100.00
31681;BME280;18281;51.364;9.566;2023-03-16T06:52:08;100426.97;;;-4.10;100.00
31681;BME280;18281;51.364;9.566;2023-03-16T06:54:34;100433.81;;;-4.09;100.00
31681;BME280;18281;51.364;9.566;2023-03-16T06:57:02;100426.41;;;-3.85;100.00
31681;BME280;18281;51.364;9.566;2023-03-16T06:59:27;100430.13;;;-2.25;100.00
31681;BME280;18281;51.364;9.566;2023-03-16T07:01:53;100432.00;;;-1.55;100.00
31681;BME280;18281;51.364;9.566;2023-03-16T07:04:18;100430.25;;;-1.94;100.00
31681;BME280;18281;51.364;9.566;2023-03-16T07:06:44;100438.69;;;-2.23;100.00
31681;BME280;18281;51.364;9.566;2023-03-16T07:09:10;100442.03;;;-2.43;100.00
31681;BME280;18281;51.364;9.566;2023-03-16T07:11:37;100440.22;;;-2.61;100.00
31681;BME280;18281;51.364;9.566;2023-03-16T07:14:03;100440.97;;;-2.80;100.00
31681;BME280;18281;51.364;9.566;2023-03-16T07:16:28;100436.63;;;-2.91;100.00
31681;BME280;18281;51.364;9.566;2023-03-16T07:18:54;100435.75;;;-2.96;100.00
31681;BME280;18281;51.364;9.566;2023-03-16T07:21:20;100441.69;;;-3.02;100.00
31681;BME280;18281;51.364;9.566;2023-03-16T07:23:46;100441.66;;;-3.06;100.00
31681;BME280;18281;51.364;9.566;2023-03-16T07:26:12;100446.78;;;-3.03;100.00
31681;BME280;18281;51.364;9.566;2023-03-16T07:28:38;100440.81;;;-3.02;100.00
31681;BME280;18281;51.364;9.566;2023-03-16T07:31:04;100446.84;;;-3.02;100.00
31681;BME280;18281;51.364;9.566;2023-03-16T07:33:34;100440.03;;;-2.95;100.00
31681;BME280;18281;51.364;9.566;2023-03-16T07:36:00;100453.72;;;-2.96;100.00
31681;BME280;18281;51.364;9.566;2023-03-16T07:38:29;100442.56;;;-3.00;100.00
31681;BME280;18281;51.364;9.566;2023-03-16T07:40:57;100436.63;;;-2.91;100.00
31681;BME280;18281;51.364;9.566;2023-03-16T07:43:22;100444.34;;;-2.88;100.00
31681;BME280;18281;51.364;9.566;2023-03-16T07:45:50;100439.28;;;-2.78;100.00
31681;BME280;18281;51.364;9.566;2023-03-16T07:48:17;100444.44;;;-2.75;100.00
31681;BME280;18281;51.364;9.566;2023-03-16T07:50:43;100447.03;;;-2.71;100.00
31681;BME280;18281;51.364;9.566;2023-03-16T07:53:09;100444.47;;;-2.66;100.00
31681;BME280;18281;51.364;9.566;2023-03-16T07:55:35;100433.31;;;-2.70;100.00
31681;BME280;18281;51.364;9.566;2023-03-16T07:58:01;100437.66;;;-2.64;100.00
31681;BME280;18281;51.364;9.566;2023-03-16T08:00:29;100442.81;;;-2.61;100.00
31681;BME280;18281;51.364;9.566;2023-03-16T08:02:55;100441.97;;;-2.55;100.00
31681;BME280;18281;51.364;9.566;2023-03-16T08:05:22;100441.13;;;-2.56;100.00
31681;BME280;18281;51.364;9.566;2023-03-16T08:07:47;100439.44;;;-2.51;100.00
31681;BME280;18281;51.364;9.566;2023-03-16T08:10:14;100441.19;;;-2.43;100.00
31681;BME280;18281;51.364;9.566;2023-03-16T08:12:39;100441.19;;;-2.46;100.00
31681;BME280;18281;51.364;9.566;2023-03-16T08:15:06;100430.09;;;-2.36;100.00
31681;BME280;18281;51.364;9.566;2023-03-16T08:17:32;100440.34;;;-2.44;100.00
31681;BME280;18281;51.364;9.566;2023-03-16T08:19:58;100434.41;;;-2.29;100.00
31681;BME280;18281;51.364;9.566;2023-03-16T08:22:24;100438.69;;;-2.25;100.00
31681;BME280;18281;51.364;9.566;2023-03-16T08:24:50;100434.44;;;-2.13;100.00
31681;BME280;18281;51.364;9.566;2023-03-16T08:27:16;100442.22;;;-1.98;100.00
31681;BME280;18281;51.364;9.566;2023-03-16T08:29:44;100433.72;;;-1.72;100.00
31681;BME280;18281;51.364;9.566;2023-03-16T08:32:09;100433.72;;;-1.61;100.00
31681;BME280;18281;51.364;9.566;2023-03-16T08:34:35;100432.00;;;-1.64;100.00
31681;BME280;18281;51.364;9.566;2023-03-16T08:37:01;100427.75;;;-1.43;100.00
31681;BME280;18281;51.364;9.566;2023-03-16T08:39:26;100426.88;;;-1.36;100.00
31681;BME280;18281;51.364;9.566;2023-03-16T08:41:53;100419.16;;;-1.18;100.00
31681;BME280;18281;51.364;9.566;2023-03-16T08:44:19;100425.75;;;-0.11;100.00
31681;BME280;18281;51.364;9.566;2023-03-16T08:46:45;100422.44;;;1.03;100.00
31681;BME280;18281;51.364;9.566;2023-03-16T08:49:10;100422.81;;;1.50;100.00
31681;BME280;18281;51.364;9.566;2023-03-16T08:51:37;100419.69;;;1.93;100.00
31681;BME280;18281;51.364;9.566;2023-03-16T08:54:03;100413.00;;;2.39;100.00
31681;BME280;18281;51.364;9.566;2023-03-16T08:56:28;100401.28;;;2.69;100.00
31681;BME280;18281;51.364;9.566;2023-03-16T08:58:55;100404.16;;;3.04;100.00
31681;BME280;18281;51.364;9.566;2023-03-16T09:01:21;100400.41;;;3.20;100.00
31681;BME280;18281;51.364;9.566;2023-03-16T09:03:47;100398.38;;;3.36;100.00
31681;BME280;18281;51.364;9.566;2023-03-16T09:06:14;100404.97;;;3.54;100.00
31681;BME280;18281;51.364;9.566;2023-03-16T09:08:41;100406.22;;;3.79;100.00
31681;BME280;18281;51.364;9.566;2023-03-16T09:11:10;100408.97;;;3.71;100.00
31681;BME280;18281;51.364;9.566;2023-03-16T09:13:37;100404.31;;;3.87;100.00
31681;BME280;18281;51.364;9.566;2023-03-16T09:16:04;100409.16;;;4.02;100.00
31681;BME280;18281;51.364;9.566;2023-03-16T09:18:30;100402.84;;;4.14;100.00
31681;BME280;18281;51.364;9.566;2023-03-16T09:21:01;100404.34;;;4.25;100.00
31681;BME280;18281;51.364;9.566;2023-03-16T09:23:28;100410.47;;;4.60;100.00
31681;BME280;18281;51.364;9.566;2023-03-16T09:25:58;100399.72;;;4.73;100.00
31681;BME280;18281;51.364;9.566;2023-03-16T09:28:25;100404.25;;;5.00;100.00
31681;BME280;18281;51.364;9.566;2023-03-16T09:30:56;100383.34;;;5.03;100.00
31681;BME280;18281;51.364;9.566;2023-03-16T09:33:23;100388.41;;;5.09;100.00
31681;BME280;18281;51.364;9.566;2023-03-16T09:35:49;100383.44;;;5.33;100.00
31681;BME280;18281;51.364;9.566;2023-03-16T09:38:16;100377.28;;;5.37;100.00
31681;BME280;18281;51.364;9.566;2023-03-16T09:40:42;100385.63;;;5.78;99.45
31681;BME280;18281;51.364;9.566;2023-03-16T09:48:21;100372.97;;;5.36;94.55
31681;BME280;18281;51.364;9.566;2023-03-16T09:50:50;100374.22;;;5.21;93.23
31681;BME280;18281;51.364;9.566;2023-03-16T09:53:24;100375.06;;;5.21;89.90
31681;BME280;18281;51.364;9.566;2023-03-16T09:56:03;100371.34;;;5.30;91.15
31681;BME280;18281;51.364;9.566;2023-03-16T09:58:29;100372.44;;;5.21;84.19
31681;BME280;18281;51.364;9.566;2023-03-16T10:06:31;100368.63;;;5.35;89.38
31681;BME280;18281;51.364;9.566;2023-03-16T10:09:32;100363.38;;;5.36;86.18
31681;BME280;18281;51.364;9.566;2023-03-16T10:11:58;100358.66;;;5.51;90.55
31681;BME280;18281;51.364;9.566;2023-03-16T10:14:46;100361.13;;;5.55;89.04
31681;BME280;18281;51.364;9.566;2023-03-16T10:17:17;100372.59;;;5.78;77.10
31681;BME280;18281;51.364;9.566;2023-03-16T10:20:00;100351.06;;;5.73;83.31
31681;BME280;18281;51.364;9.566;2023-03-16T10:22:31;100360.22;;;5.86;86.30
31681;BME280;18281;51.364;9.566;2023-03-16T10:27:35;100340.91;;;6.47;89.95
31681;BME280;18281;51.364;9.566;2023-03-16T10:30:14;100332.91;;;6.53;92.95
31681;BME280;18281;51.364;9.566;2023-03-16T10:32:44;100333.31;;;6.66;89.68
31681;BME280;18281;51.364;9.566;2023-03-16T10:35:21;100322.94;;;6.65;83.85
31681;BME280;18281;51.364;9.566;2023-03-16T10:37:51;100339.09;;;6.76;83.07
31681;BME280;18281;51.364;9.566;2023-03-16T10:40:17;100336.72;;;6.95;84.83
31681;BME280;18281;51.364;9.566;2023-03-16T10:42:45;100325.94;;;7.04;93.29
31681;BME280;18281;51.364;9.566;2023-03-16T10:45:28;100328.63;;;7.27;91.58
31681;BME280;18281;51.364;9.566;2023-03-16T10:48:05;100319.94;;;7.26;91.88
31681;BME280;18281;51.364;9.566;2023-03-16T10:50:31;100321.19;;;7.39;88.55
31681;BME280;18281;51.364;9.566;2023-03-16T10:52:58;100326.09;;;7.71;86.97
31681;BME280;18281;51.364;9.566;2023-03-16T10:55:31;100325.88;;;7.77;86.84
31681;BME280;18281;51.364;9.566;2023-03-16T10:58:07;100312.75;;;7.55;75.98
31681;BME280;18281;51.364;9.566;2023-03-16T11:00:40;100313.34;;;7.39;76.66
31681;BME280;18281;51.364;9.566;2023-03-16T11:03:27;100324.16;;;7.30;73.31
31681;BME280;18281;51.364;9.566;2023-03-16T11:06:23;100312.03;;;7.28;69.79
31681;BME280;18281;51.364;9.566;2023-03-16T11:09:00;100325.38;;;7.20;66.09
31681;BME280;18281;51.364;9.566;2023-03-16T11:11:29;100321.13;;;7.17;68.73
31681;BME280;18281;51.364;9.566;2023-03-16T11:13:59;100318.41;;;7.20;73.61
31681;BME280;18281;51.364;9.566;2023-03-16T11:19:53;100321.00;;;7.44;74.83
31681;BME280;18281;51.364;9.566;2023-03-16T11:22:25;100312.75;;;7.55;74.35
31681;BME280;18281;51.364;9.566;2023-03-16T11:30:19;100293.06;;;7.70;73.65
31681;BME280;18281;51.364;9.566;2023-03-16T11:32:50;100284.53;;;7.87;69.24
31681;BME280;18281;51.364;9.566;2023-03-16T11:38:16;100279.28;;;7.87;68.19
31681;BME280;18281;51.364;9.566;2023-03-16T11:43:49;100262.91;;;7.83;67.74
31681;BME280;18281;51.364;9.566;2023-03-16T11:46:39;100265.13;;;7.93;65.07
31681;BME280;18281;51.364;9.566;2023-03-16T11:52:11;100262.13;;;8.02;63.01
31681;BME280;18281;51.364;9.566;2023-03-16T11:58:01;100254.56;;;7.96;63.56
31681;BME280;18281;51.364;9.566;2023-03-16T12:06:18;100263.00;;;8.02;65.44
31681;BME280;18281;51.364;9.566;2023-03-16T12:14:37;100252.56;;;7.80;65.04
31681;BME280;18281;51.364;9.566;2023-03-16T12:17:24;100247.94;;;7.65;61.83
31681;BME280;18281;51.364;9.566;2023-03-16T12:20:40;100237.19;;;7.50;64.24
31681;BME280;18281;51.364;9.566;2023-03-16T12:22:56;100233.84;;;7.69;62.61
31681;BME280;18281;51.364;9.566;2023-03-16T12:25:36;100223.03;;;7.78;67.63
31681;BME280;18281;51.364;9.566;2023-03-16T12:28:09;100203.56;;;7.85;62.86
31681;BME280;18281;51.364;9.566;2023-03-16T12:30:59;100206.81;;;7.70;64.63
31681;BME280;18281;51.364;9.566;2023-03-16T12:33:42;100204.91;;;7.73;65.58
31681;BME280;18281;51.364;9.566;2023-03-16T12:49:38;100180.22;;;7.81;65.29
31681;BME280;18281;51.364;9.566;2023-03-16T12:52:09;100182.94;;;8.00;63.27
31681;BME280;18281;51.364;9.566;2023-03-16T12:54:48;100183.44;;;8.08;65.79
31681;BME280;18281;51.364;9.566;2023-03-16T12:57:15;100178.00;;;8.13;64.65
31681;BME280;18281;51.364;9.566;2023-03-16T12:59:43;100169.72;;;8.03;60.19
31681;BME280;18281;51.364;9.566;2023-03-16T13:02:14;100162.47;;;7.89;58.36
31681;BME280;18281;51.364;9.566;2023-03-16T13:04:43;100170.94;;;7.73;55.20
31681;BME280;18281;51.364;9.566;2023-03-16T13:07:17;100165.00;;;7.70;57.87
31681;BME280;18281;51.364;9.566;2023-03-16T13:09:46;100159.81;;;7.68;58.41
31681;BME280;18281;51.364;9.566;2023-03-16T13:14:50;100149.84;;;7.78;59.51
31681;BME280;18281;51.364;9.566;2023-03-16T13:26:46;100142.31;;;7.70;59.81
31681;BME280;18281;51.364;9.566;2023-03-16T13:32:21;100144.69;;;7.97;59.20
31681;BME280;18281;51.364;9.566;2023-03-16T13:56:21;100110.22;;;7.67;58.49
31681;BME280;18281;51.364;9.566;2023-03-16T13:58:59;100107.88;;;7.81;59.76
31681;BME280;18281;51.364;9.566;2023-03-16T14:02:25;100105.41;;;7.78;58.19
31681;BME280;18281;51.364;9.566;2023-03-16T14:04:51;100102.47;;;7.65;60.16
31681;BME280;18281;51.364;9.566;2023-03-16T14:08:11;100095.41;;;7.67;57.87
31681;BME280;18281;51.364;9.566;2023-03-16T14:11:42;100092.59;;;7.51;55.98
31681;BME280;18281;51.364;9.566;2023-03-16T14:14:39;100082.25;;;7.48;58.97
31681;BME280;18281;51.364;9.566;2023-03-16T14:32:58;100084.47;;;7.57;65.05
31681;BME280;18281;51.364;9.566;2023-03-16T14:49:06;100064.41;;;7.37;59.13
31681;BME280;18281;51.364;9.566;2023-03-16T14:59:08;100050.81;;;7.29;59.13
31681;BME280;18281;51.364;9.566;2023-03-16T15:01:54;100043.66;;;7.34;59.60
31681;BME280;18281;51.364;9.566;2023-03-16T15:08:39;100046.41;;;7.31;59.66
31681;BME280;18281;51.364;9.566;2023-03-16T15:11:16;100049.91;;;7.30;59.35
31681;BME280;18281;51.364;9.566;2023-03-16T15:14:07;100049.78;;;7.33;62.00
31681;BME280;18281;51.364;9.566;2023-03-16T15:17:09;100040.97;;;7.15;59.70
31681;BME280;18281;51.364;9.566;2023-03-16T15:21:08;100041.13;;;7.11;59.63